sensor_id;sensor_type;location;lat;lon;timestamp;temperature;humidity
46309;DHT22;32037;50.820;6.494;2022-11-10T00:00:14;14.10;78.30
46309;DHT22;32037;50.820;6.494;2022-11-10T00:03:04;14.10;78.20
46309;DHT22;32037;50.820;6.494;2022-11-10T00:05:52;14.10;78.30
46309;DHT22;32037;50.820;6.494;2022-11-10T00:08:39;14.10;78.30
46309;DHT22;32037;50.820;6.494;2022-11-10T00:11:26;14.10;78.30
46309;DHT22;32037;50.820;6.494;2022-11-10T00:14:13;14.10;78.20
46309;DHT22;32037;50.820;6.494;2022-11-10T00:17:17;14.10;78.30
46309;DHT22;32037;50.820;6.494;2022-11-10T00:20:07;14.10;78.30
46309;DHT22;32037;50.820;6.494;2022-11-10T00:22:55;14.00;78.20
46309;DHT22;32037;50.820;6.494;2022-11-10T00:25:41;14.10;78.40
46309;DHT22;32037;50.820;6.494;2022-11-10T00:28:29;14.10;78.40
46309;DHT22;32037;50.820;6.494;2022-11-10T00:31:17;14.00;78.30
46309;DHT22;32037;50.820;6.494;2022-11-10T00:34:04;14.10;78.40
46309;DHT22;32037;50.820;6.494;2022-11-10T00:36:52;14.00;78.20
46309;DHT22;32037;50.820;6.494;2022-11-10T00:39:40;14.10;78.40
46309;DHT22;32037;50.820;6.494;2022-11-10T00:42:27;14.00;78.30
46309;DHT22;32037;50.820;6.494;2022-11-10T00:45:14;14.00;78.30
46309;DHT22;32037;50.820;6.494;2022-11-10T00:48:01;14.00;78.30
46309;DHT22;32037;50.820;6.494;2022-11-10T00:50:50;14.00;78.30
46309;DHT22;32037;50.820;6.494;2022-11-10T00:53:38;14.00;78.40
46309;DHT22;32037;50.820;6.494;2022-11-10T00:56:25;14.00;78.50
46309;DHT22;32037;50.820;6.494;2022-11-10T00:59:12;14.00;78.40
46309;DHT22;32037;50.820;6.494;2022-11-10T01:01:59;14.00;78.50
46309;DHT22;32037;50.820;6.494;2022-11-10T01:04:46;14.00;78.50
46309;DHT22;32037;50.820;6.494;2022-11-10T01:07:33;14.00;78.50
46309;DHT22;32037;50.820;6.494;2022-11-10T01:10:21;14.00;78.40
46309;DHT22;32037;50.820;6.494;2022-11-10T01:13:08;14.00;78.50
46309;DHT22;32037;50.820;6.494;2022-11-10T01:15:56;14.00;78.40
46309;DHT22;32037;50.820;6.494;2022-11-10T01:18:43;14.00;78.40
46309;DHT22;32037;50.820;6.494;2022-11-10T01:21:30;14.00;78.50
46309;DHT22;32037;50.820;6.494;2022-11-10T01:24:19;14.00;78.40
46309;DHT22;32037;50.820;6.494;2022-11-10T01:27:09;14.00;78.50
46309;DHT22;32037;50.820;6.494;2022-11-10T01:29:56;14.00;78.40
46309;DHT22;32037;50.820;6.494;2022-11-10T01:32:42;14.00;78.50
46309;DHT22;32037;50.820;6.494;2022-11-10T01:35:30;14.00;78.50
46309;DHT22;32037;50.820;6.494;2022-11-10T01:38:16;14.00;78.40
46309;DHT22;32037;50.820;6.494;2022-11-10T01:41:05;14.00;78.50
46309;DHT22;32037;50.820;6.494;2022-11-10T01:44:16;14.00;78.40
46309;DHT22;32037;50.820;6.494;2022-11-10T01:47:03;14.00;78.50
46309;DHT22;32037;50.820;6.494;2022-11-10T01:49:50;14.00;78.50
46309;DHT22;32037;50.820;6.494;2022-11-10T01:52:37;14.00;78.60
46309;DHT22;32037;50.820;6.494;2022-11-10T01:55:29;14.00;78.50
46309;DHT22;32037;50.820;6.494;2022-11-10T01:58:19;14.00;78.50
46309;DHT22;32037;50.820;6.494;2022-11-10T02:01:09;14.00;78.60
46309;DHT22;32037;50.820;6.494;2022-11-10T02:03:58;14.00;78.70
46309;DHT22;32037;50.820;6.494;2022-11-10T02:06:47;14.00;78.60
46309;DHT22;32037;50.820;6.494;2022-11-10T02:09:36;14.00;78.60
46309;DHT22;32037;50.820;6.494;2022-11-10T02:12:23;14.00;78.60
46309;DHT22;32037;50.820;6.494;2022-11-10T02:15:22;14.00;78.60
46309;DHT22;32037;50.820;6.494;2022-11-10T02:18:11;14.00;78.70
46309;DHT22;32037;50.820;6.494;2022-11-10T02:21:02;14.00;78.70
46309;DHT22;32037;50.820;6.494;2022-11-10T02:23:51;13.90;78.60
46309;DHT22;32037;50.820;6.494;2022-11-10T02:26:42;13.90;78.60
46309;DHT22;32037;50.820;6.494;2022-11-10T02:29:31;13.90;78.60
46309;DHT22;32037;50.820;6.494;2022-11-10T02:32:19;13.90;78.60
46309;DHT22;32037;50.820;6.494;2022-11-10T02:35:07;13.90;78.60
46309;DHT22;32037;50.820;6.494;2022-11-10T02:37:56;13.90;78.60
46309;DHT22;32037;50.820;6.494;2022-11-10T02:40:42;13.90;78.60
46309;DHT22;32037;50.820;6.494;2022-11-10T02:43:30;13.90;78.60
46309;DHT22;32037;50.820;6.494;2022-11-10T02:46:17;13.90;78.60
46309;DHT22;32037;50.820;6.494;2022-11-10T02:49:04;13.90;78.60
46309;DHT22;32037;50.820;6.494;2022-11-10T02:51:52;13.90;78.70
46309;DHT22;32037;50.820;6.494;2022-11-10T02:54:41;13.90;78.70
46309;DHT22;32037;50.820;6.494;2022-11-10T02:57:29;13.90;78.70
46309;DHT22;32037;50.820;6.494;2022-11-10T03:00:16;13.90;78.70
46309;DHT22;32037;50.820;6.494;2022-11-10T03:03:05;13.90;78.70
46309;DHT22;32037;50.820;6.494;2022-11-10T03:05:52;13.90;78.70
46309;DHT22;32037;50.820;6.494;2022-11-10T03:08:40;13.90;78.80
46309;DHT22;32037;50.820;6.494;2022-11-10T03:11:29;13.90;78.70
46309;DHT22;32037;50.820;6.494;2022-11-10T03:14:16;13.90;78.90
46309;DHT22;32037;50.820;6.494;2022-11-10T03:17:04;13.90;78.90
46309;DHT22;32037;50.820;6.494;2022-11-10T03:19:51;13.90;78.80
46309;DHT22;32037;50.820;6.494;2022-11-10T03:22:39;13.90;78.90
46309;DHT22;32037;50.820;6.494;2022-11-10T03:25:27;13.90;78.90
46309;DHT22;32037;50.820;6.494;2022-11-10T03:28:15;13.90;78.80
46309;DHT22;32037;50.820;6.494;2022-11-10T03:31:03;13.90;78.90
46309;DHT22;32037;50.820;6.494;2022-11-10T03:33:50;13.90;78.80
46309;DHT22;32037;50.820;6.494;2022-11-10T03:36:37;13.90;78.80
46309;DHT22;32037;50.820;6.494;2022-11-10T03:39:24;13.90;78.90
46309;DHT22;32037;50.820;6.494;2022-11-10T03:42:12;13.90;78.90
46309;DHT22;32037;50.820;6.494;2022-11-10T03:45:01;13.80;78.80
46309;DHT22;32037;50.820;6.494;2022-11-10T03:47:48;13.80;78.70
46309;DHT22;32037;50.820;6.494;2022-11-10T03:50:37;13.80;78.90
46309;DHT22;32037;50.820;6.494;2022-11-10T03:53:24;13.80;78.90
46309;DHT22;32037;50.820;6.494;2022-11-10T03:56:11;13.80;78.80
46309;DHT22;32037;50.820;6.494;2022-11-10T03:58:58;13.80;78.70
46309;DHT22;32037;50.820;6.494;2022-11-10T04:01:47;13.80;78.80
46309;DHT22;32037;50.820;6.494;2022-11-10T04:04:35;13.80;80.10
46309;DHT22;32037;50.820;6.494;2022-11-10T04:07:39;13.80;78.80
46309;DHT22;32037;50.820;6.494;2022-11-10T04:10:44;13.80;78.90
46309;DHT22;32037;50.820;6.494;2022-11-10T04:13:32;13.80;78.90
46309;DHT22;32037;50.820;6.494;2022-11-10T04:16:37;13.80;78.90
46309;DHT22;32037;50.820;6.494;2022-11-10T04:19:25;13.80;78.80
46309;DHT22;32037;50.820;6.494;2022-11-10T04:22:13;13.80;78.80
46309;DHT22;32037;50.820;6.494;2022-11-10T04:25:20;13.80;78.90
46309;DHT22;32037;50.820;6.494;2022-11-10T04:28:07;13.80;78.90
46309;DHT22;32037;50.820;6.494;2022-11-10T04:30:55;13.80;78.90
46309;DHT22;32037;50.820;6.494;2022-11-10T04:33:43;13.80;78.90
46309;DHT22;32037;50.820;6.494;2022-11-10T04:36:34;13.80;78.90
46309;DHT22;32037;50.820;6.494;2022-11-10T04:39:22;13.80;78.90
46309;DHT22;32037;50.820;6.494;2022-11-10T04:42:09;13.80;79.00
46309;DHT22;32037;50.820;6.494;2022-11-10T04:44:56;13.80;79.00
46309;DHT22;32037;50.820;6.494;2022-11-10T04:47:43;13.80;78.90
46309;DHT22;32037;50.820;6.494;2022-11-10T04:50:31;13.80;78.90
46309;DHT22;32037;50.820;6.494;2022-11-10T04:53:19;13.80;78.90
46309;DHT22;32037;50.820;6.494;2022-11-10T04:56:09;13.80;79.00
46309;DHT22;32037;50.820;6.494;2022-11-10T04:58:57;13.70;78.90
46309;DHT22;32037;50.820;6.494;2022-11-10T05:01:45;13.70;78.90
46309;DHT22;32037;50.820;6.494;2022-11-10T05:04:32;13.70;78.90
46309;DHT22;32037;50.820;6.494;2022-11-10T05:07:19;13.70;78.90
46309;DHT22;32037;50.820;6.494;2022-11-10T05:10:08;13.70;79.00
46309;DHT22;32037;50.820;6.494;2022-11-10T05:12:56;13.70;79.00
46309;DHT22;32037;50.820;6.494;2022-11-10T05:15:47;13.70;78.90
46309;DHT22;32037;50.820;6.494;2022-11-10T05:18:34;13.70;79.00
46309;DHT22;32037;50.820;6.494;2022-11-10T05:21:22;13.70;79.00
46309;DHT22;32037;50.820;6.494;2022-11-10T05:24:09;13.70;79.20
46309;DHT22;32037;50.820;6.494;2022-11-10T05:26:58;13.70;79.00
46309;DHT22;32037;50.820;6.494;2022-11-10T05:29:45;13.70;78.90
46309;DHT22;32037;50.820;6.494;2022-11-10T05:32:32;13.70;78.90
46309;DHT22;32037;50.820;6.494;2022-11-10T05:35:20;13.70;78.90
46309;DHT22;32037;50.820;6.494;2022-11-10T05:38:07;13.70;78.90
46309;DHT22;32037;50.820;6.494;2022-11-10T05:40:55;13.70;78.90
46309;DHT22;32037;50.820;6.494;2022-11-10T05:43:43;13.70;78.90
46309;DHT22;32037;50.820;6.494;2022-11-10T05:46:30;13.70;78.90
46309;DHT22;32037;50.820;6.494;2022-11-10T05:49:18;13.70;78.90
46309;DHT22;32037;50.820;6.494;2022-11-10T05:52:04;13.70;78.90
46309;DHT22;32037;50.820;6.494;2022-11-10T05:54:51;13.70;78.80
46309;DHT22;32037;50.820;6.494;2022-11-10T05:57:41;13.70;78.90
46309;DHT22;32037;50.820;6.494;2022-11-10T06:00:30;13.70;78.90
46309;DHT22;32037;50.820;6.494;2022-11-10T06:03:18;13.70;78.90
46309;DHT22;32037;50.820;6.494;2022-11-10T06:06:06;13.70;78.90
46309;DHT22;32037;50.820;6.494;2022-11-10T06:08:53;13.70;78.90
46309;DHT22;32037;50.820;6.494;2022-11-10T06:11:41;13.70;78.90
46309;DHT22;32037;50.820;6.494;2022-11-10T06:14:28;13.70;78.90
46309;DHT22;32037;50.820;6.494;2022-11-10T06:17:17;13.70;78.90
46309;DHT22;32037;50.820;6.494;2022-11-10T06:20:04;13.70;78.90
46309;DHT22;32037;50.820;6.494;2022-11-10T06:22:59;13.60;78.80
46309;DHT22;32037;50.820;6.494;2022-11-10T06:25:47;13.60;78.80
46309;DHT22;32037;50.820;6.494;2022-11-10T06:28:34;13.60;78.80
46309;DHT22;32037;50.820;6.494;2022-11-10T06:31:22;13.60;78.90
46309;DHT22;32037;50.820;6.494;2022-11-10T06:34:10;13.60;78.90
46309;DHT22;32037;50.820;6.494;2022-11-10T06:36:58;13.60;78.80
46309;DHT22;32037;50.820;6.494;2022-11-10T06:39:46;13.60;78.90
46309;DHT22;32037;50.820;6.494;2022-11-10T06:42:34;13.60;78.90
46309;DHT22;32037;50.820;6.494;2022-11-10T06:45:22;13.60;78.90
46309;DHT22;32037;50.820;6.494;2022-11-10T06:48:11;13.60;79.00
46309;DHT22;32037;50.820;6.494;2022-11-10T06:51:01;13.60;78.90
46309;DHT22;32037;50.820;6.494;2022-11-10T06:53:48;13.60;78.90
46309;DHT22;32037;50.820;6.494;2022-11-10T06:56:35;13.60;78.90
46309;DHT22;32037;50.820;6.494;2022-11-10T06:59:25;13.60;79.00
46309;DHT22;32037;50.820;6.494;2022-11-10T07:02:13;13.60;78.90
46309;DHT22;32037;50.820;6.494;2022-11-10T07:05:00;13.60;79.00
46309;DHT22;32037;50.820;6.494;2022-11-10T07:07:50;13.60;78.90
46309;DHT22;32037;50.820;6.494;2022-11-10T07:10:37;13.60;79.10
46309;DHT22;32037;50.820;6.494;2022-11-10T07:13:24;13.60;79.00
46309;DHT22;32037;50.820;6.494;2022-11-10T07:16:12;13.60;79.10
46309;DHT22;32037;50.820;6.494;2022-11-10T07:18:59;13.60;79.00
46309;DHT22;32037;50.820;6.494;2022-11-10T07:21:46;13.60;79.10
46309;DHT22;32037;50.820;6.494;2022-11-10T07:24:35;13.60;79.20
46309;DHT22;32037;50.820;6.494;2022-11-10T07:27:22;13.50;79.10
46309;DHT22;32037;50.820;6.494;2022-11-10T07:30:10;13.50;79.10
46309;DHT22;32037;50.820;6.494;2022-11-10T07:32:59;13.50;79.20
46309;DHT22;32037;50.820;6.494;2022-11-10T07:35:51;13.60;79.20
46309;DHT22;32037;50.820;6.494;2022-11-10T07:38:40;13.50;79.10
46309;DHT22;32037;50.820;6.494;2022-11-10T07:41:29;13.50;79.20
46309;DHT22;32037;50.820;6.494;2022-11-10T07:44:16;13.50;79.20
46309;DHT22;32037;50.820;6.494;2022-11-10T07:47:03;13.50;79.30
46309;DHT22;32037;50.820;6.494;2022-11-10T07:49:51;13.50;79.10
46309;DHT22;32037;50.820;6.494;2022-11-10T07:52:38;13.50;79.20
46309;DHT22;32037;50.820;6.494;2022-11-10T07:55:25;13.50;79.20
46309;DHT22;32037;50.820;6.494;2022-11-10T07:58:16;13.50;79.20
46309;DHT22;32037;50.820;6.494;2022-11-10T08:01:04;13.50;79.10
46309;DHT22;32037;50.820;6.494;2022-11-10T08:03:51;13.50;79.20
46309;DHT22;32037;50.820;6.494;2022-11-10T08:06:39;13.50;79.40
46309;DHT22;32037;50.820;6.494;2022-11-10T08:09:30;13.50;79.40
46309;DHT22;32037;50.820;6.494;2022-11-10T08:12:17;13.50;79.30
46309;DHT22;32037;50.820;6.494;2022-11-10T08:15:07;13.50;79.10
46309;DHT22;32037;50.820;6.494;2022-11-10T08:17:57;13.50;79.20
46309;DHT22;32037;50.820;6.494;2022-11-10T08:20:48;13.50;79.00
46309;DHT22;32037;50.820;6.494;2022-11-10T08:23:36;13.50;79.00
46309;DHT22;32037;50.820;6.494;2022-11-10T08:26:24;13.50;78.90
46309;DHT22;32037;50.820;6.494;2022-11-10T08:29:11;13.60;78.90
46309;DHT22;32037;50.820;6.494;2022-11-10T08:31:59;13.50;78.80
46309;DHT22;32037;50.820;6.494;2022-11-10T08:34:46;13.50;78.70
46309;DHT22;32037;50.820;6.494;2022-11-10T08:37:33;13.60;78.70
46309;DHT22;32037;50.820;6.494;2022-11-10T08:40:20;13.60;78.70
46309;DHT22;32037;50.820;6.494;2022-11-10T08:43:08;13.60;78.60
46309;DHT22;32037;50.820;6.494;2022-11-10T08:45:56;13.60;78.50
46309;DHT22;32037;50.820;6.494;2022-11-10T08:48:44;13.60;78.60
46309;DHT22;32037;50.820;6.494;2022-11-10T08:51:31;13.60;78.50
46309;DHT22;32037;50.820;6.494;2022-11-10T08:54:23;13.60;78.40
46309;DHT22;32037;50.820;6.494;2022-11-10T08:57:10;13.60;78.40
46309;DHT22;32037;50.820;6.494;2022-11-10T08:59:58;13.60;78.50
46309;DHT22;32037;50.820;6.494;2022-11-10T09:02:45;13.60;78.40
46309;DHT22;32037;50.820;6.494;2022-11-10T09:05:35;13.60;78.40
46309;DHT22;32037;50.820;6.494;2022-11-10T09:08:22;13.60;78.50
46309;DHT22;32037;50.820;6.494;2022-11-10T09:11:10;13.60;78.40
46309;DHT22;32037;50.820;6.494;2022-11-10T09:13:58;13.60;78.30
46309;DHT22;32037;50.820;6.494;2022-11-10T09:16:46;13.60;78.30
46309;DHT22;32037;50.820;6.494;2022-11-10T09:19:33;13.60;78.30
46309;DHT22;32037;50.820;6.494;2022-11-10T09:22:23;13.60;78.40
46309;DHT22;32037;50.820;6.494;2022-11-10T09:25:11;13.60;78.30
46309;DHT22;32037;50.820;6.494;2022-11-10T09:27:58;13.70;78.40
46309;DHT22;32037;50.820;6.494;2022-11-10T09:30:46;13.60;78.20
46309;DHT22;32037;50.820;6.494;2022-11-10T09:33:34;13.60;78.10
46309;DHT22;32037;50.820;6.494;2022-11-10T09:36:21;13.60;78.30
46309;DHT22;32037;50.820;6.494;2022-11-10T09:39:10;13.60;78.20
46309;DHT22;32037;50.820;6.494;2022-11-10T09:41:58;13.70;78.40
46309;DHT22;32037;50.820;6.494;2022-11-10T09:44:50;13.70;78.40
46309;DHT22;32037;50.820;6.494;2022-11-10T09:47:44;13.70;78.60
46309;DHT22;32037;50.820;6.494;2022-11-10T09:50:46;13.70;78.50
46309;DHT22;32037;50.820;6.494;2022-11-10T09:53:41;13.70;78.40
46309;DHT22;32037;50.820;6.494;2022-11-10T09:56:34;13.70;78.40
46309;DHT22;32037;50.820;6.494;2022-11-10T09:59:25;13.70;78.40
46309;DHT22;32037;50.820;6.494;2022-11-10T10:02:22;13.70;78.40
46309;DHT22;32037;50.820;6.494;2022-11-10T10:05:46;13.70;78.40
46309;DHT22;32037;50.820;6.494;2022-11-10T10:08:46;13.70;78.40
46309;DHT22;32037;50.820;6.494;2022-11-10T10:11:46;13.70;78.40
46309;DHT22;32037;50.820;6.494;2022-11-10T10:14:46;13.70;78.40
46309;DHT22;32037;50.820;6.494;2022-11-10T10:17:38;13.60;78.30
46309;DHT22;32037;50.820;6.494;2022-11-10T10:20:38;13.70;78.40
46309;DHT22;32037;50.820;6.494;2022-11-10T10:23:33;13.60;78.20
46309;DHT22;32037;50.820;6.494;2022-11-10T10:26:46;13.60;78.20
46309;DHT22;32037;50.820;6.494;2022-11-10T10:29:38;13.70;78.40
46309;DHT22;32037;50.820;6.494;2022-11-10T10:32:25;13.60;79.50
46309;DHT22;32037;50.820;6.494;2022-11-10T10:35:14;13.60;78.40
46309;DHT22;32037;50.820;6.494;2022-11-10T10:38:01;13.60;79.50
46309;DHT22;32037;50.820;6.494;2022-11-10T10:40:51;13.60;78.40
46309;DHT22;32037;50.820;6.494;2022-11-10T10:43:40;13.60;78.30
46309;DHT22;32037;50.820;6.494;2022-11-10T10:46:43;13.60;78.30
46309;DHT22;32037;50.820;6.494;2022-11-10T10:49:31;13.60;78.30
46309;DHT22;32037;50.820;6.494;2022-11-10T10:52:18;13.60;78.30
46309;DHT22;32037;50.820;6.494;2022-11-10T10:55:11;13.60;78.40
46309;DHT22;32037;50.820;6.494;2022-11-10T10:58:00;13.60;78.30
46309;DHT22;32037;50.820;6.494;2022-11-10T11:00:50;13.70;78.50
46309;DHT22;32037;50.820;6.494;2022-11-10T11:03:40;13.60;78.40
46309;DHT22;32037;50.820;6.494;2022-11-10T11:06:29;13.60;78.30
46309;DHT22;32037;50.820;6.494;2022-11-10T11:09:18;13.60;78.30
46309;DHT22;32037;50.820;6.494;2022-11-10T11:12:07;13.60;78.40
46309;DHT22;32037;50.820;6.494;2022-11-10T11:15:11;13.60;78.30
46309;DHT22;32037;50.820;6.494;2022-11-10T11:18:02;13.60;78.40
46309;DHT22;32037;50.820;6.494;2022-11-10T11:20:57;13.60;78.70
46309;DHT22;32037;50.820;6.494;2022-11-10T11:27:00;13.60;79.50
46309;DHT22;32037;50.820;6.494;2022-11-10T11:30:04;13.60;78.40
46309;DHT22;32037;50.820;6.494;2022-11-10T11:33:36;13.60;78.30
46309;DHT22;32037;50.820;6.494;2022-11-10T11:36:50;13.70;78.50
46309;DHT22;32037;50.820;6.494;2022-11-10T11:39:55;13.60;78.50
46309;DHT22;32037;50.820;6.494;2022-11-10T11:42:54;13.70;78.60
46309;DHT22;32037;50.820;6.494;2022-11-10T11:45:52;13.60;78.50
46309;DHT22;32037;50.820;6.494;2022-11-10T11:48:57;13.60;78.50
46309;DHT22;32037;50.820;6.494;2022-11-10T11:51:53;13.60;78.50
46309;DHT22;32037;50.820;6.494;2022-11-10T11:54:58;13.60;78.50
46309;DHT22;32037;50.820;6.494;2022-11-10T11:58:04;13.60;78.50
46309;DHT22;32037;50.820;6.494;2022-11-10T12:01:05;13.60;78.50
46309;DHT22;32037;50.820;6.494;2022-11-10T12:04:29;13.60;78.60
46309;DHT22;32037;50.820;6.494;2022-11-10T12:07:34;13.60;78.50
46309;DHT22;32037;50.820;6.494;2022-11-10T12:10:35;13.60;78.60
46309;DHT22;32037;50.820;6.494;2022-11-10T12:13:37;13.60;78.60
46309;DHT22;32037;50.820;6.494;2022-11-10T12:16:30;13.60;78.60
46309;DHT22;32037;50.820;6.494;2022-11-10T12:23:31;13.60;78.60
46309;DHT22;32037;50.820;6.494;2022-11-10T12:26:37;13.60;79.80
46309;DHT22;32037;50.820;6.494;2022-11-10T12:29:30;13.60;78.60
46309;DHT22;32037;50.820;6.494;2022-11-10T12:32:25;13.60;78.70
46309;DHT22;32037;50.820;6.494;2022-11-10T12:35:21;13.60;78.50
46309;DHT22;32037;50.820;6.494;2022-11-10T12:38:56;13.60;78.50
46309;DHT22;32037;50.820;6.494;2022-11-10T12:41:59;13.70;78.70
46309;DHT22;32037;50.820;6.494;2022-11-10T12:45:16;13.60;78.50
46309;DHT22;32037;50.820;6.494;2022-11-10T12:48:27;13.60;78.70
46309;DHT22;32037;50.820;6.494;2022-11-10T12:52:05;13.70;78.70
46309;DHT22;32037;50.820;6.494;2022-11-10T12:55:11;13.60;78.60
46309;DHT22;32037;50.820;6.494;2022-11-10T12:58:23;13.60;78.50
46309;DHT22;32037;50.820;6.494;2022-11-10T13:01:13;13.60;78.50
46309;DHT22;32037;50.820;6.494;2022-11-10T13:04:04;13.60;78.50
46309;DHT22;32037;50.820;6.494;2022-11-10T13:06:54;13.60;78.50
46309;DHT22;32037;50.820;6.494;2022-11-10T13:09:43;13.70;80.00
46309;DHT22;32037;50.820;6.494;2022-11-10T13:12:32;13.60;78.50
46309;DHT22;32037;50.820;6.494;2022-11-10T13:15:49;13.60;78.50
46309;DHT22;32037;50.820;6.494;2022-11-10T13:19:00;13.60;78.30
46309;DHT22;32037;50.820;6.494;2022-11-10T13:22:10;13.70;78.60
46309;DHT22;32037;50.820;6.494;2022-11-10T13:32:20;13.70;78.60
46309;DHT22;32037;50.820;6.494;2022-11-10T13:38:40;13.70;78.60
46309;DHT22;32037;50.820;6.494;2022-11-10T13:41:32;13.70;78.60
46309;DHT22;32037;50.820;6.494;2022-11-10T13:44:23;13.70;78.60
46309;DHT22;32037;50.820;6.494;2022-11-10T13:51:10;13.70;78.70
46309;DHT22;32037;50.820;6.494;2022-11-10T13:58:22;13.70;78.60
46309;DHT22;32037;50.820;6.494;2022-11-10T14:01:41;13.70;78.60
46309;DHT22;32037;50.820;6.494;2022-11-10T14:04:41;13.70;78.60
46309;DHT22;32037;50.820;6.494;2022-11-10T14:07:38;13.70;78.60
46309;DHT22;32037;50.820;6.494;2022-11-10T14:10:41;13.70;79.10
46309;DHT22;32037;50.820;6.494;2022-11-10T14:13:36;13.70;78.60
46309;DHT22;32037;50.820;6.494;2022-11-10T14:16:27;13.70;78.70
46309;DHT22;32037;50.820;6.494;2022-11-10T14:19:30;13.70;78.60
46309;DHT22;32037;50.820;6.494;2022-11-10T14:22:32;13.70;78.60
46309;DHT22;32037;50.820;6.494;2022-11-10T14:25:26;13.70;78.60
46309;DHT22;32037;50.820;6.494;2022-11-10T14:28:23;13.70;78.60
46309;DHT22;32037;50.820;6.494;2022-11-10T14:31:18;13.70;78.60
46309;DHT22;32037;50.820;6.494;2022-11-10T14:34:13;13.70;78.50
46309;DHT22;32037;50.820;6.494;2022-11-10T14:37:02;13.70;78.50
46309;DHT22;32037;50.820;6.494;2022-11-10T14:39:53;13.70;78.50
46309;DHT22;32037;50.820;6.494;2022-11-10T14:42:43;13.70;78.60
46309;DHT22;32037;50.820;6.494;2022-11-10T14:45:31;13.70;78.60
46309;DHT22;32037;50.820;6.494;2022-11-10T14:48:27;13.70;78.60
46309;DHT22;32037;50.820;6.494;2022-11-10T14:51:24;13.70;78.60
46309;DHT22;32037;50.820;6.494;2022-11-10T14:54:17;13.70;78.60
46309;DHT22;32037;50.820;6.494;2022-11-10T14:57:15;13.70;78.70
46309;DHT22;32037;50.820;6.494;2022-11-10T15:00:06;13.70;78.70
46309;DHT22;32037;50.820;6.494;2022-11-10T15:02:55;13.70;78.50
46309;DHT22;32037;50.820;6.494;2022-11-10T15:05:43;13.70;78.60
46309;DHT22;32037;50.820;6.494;2022-11-10T15:08:30;13.70;78.60
46309;DHT22;32037;50.820;6.494;2022-11-10T15:11:36;13.70;78.60
46309;DHT22;32037;50.820;6.494;2022-11-10T15:14:36;13.70;78.60
46309;DHT22;32037;50.820;6.494;2022-11-10T15:17:42;13.70;78.70
46309;DHT22;32037;50.820;6.494;2022-11-10T15:20:32;13.70;78.70
46309;DHT22;32037;50.820;6.494;2022-11-10T15:23:21;13.70;78.70
46309;DHT22;32037;50.820;6.494;2022-11-10T15:26:19;13.70;78.70
46309;DHT22;32037;50.820;6.494;2022-11-10T15:29:19;13.70;78.70
46309;DHT22;32037;50.820;6.494;2022-11-10T15:32:15;13.70;78.70
46309;DHT22;32037;50.820;6.494;2022-11-10T15:35:08;13.70;78.60
46309;DHT22;32037;50.820;6.494;2022-11-10T15:38:00;13.70;78.70
46309;DHT22;32037;50.820;6.494;2022-11-10T15:40:48;13.70;78.70
46309;DHT22;32037;50.820;6.494;2022-11-10T15:43:36;13.70;78.80
46309;DHT22;32037;50.820;6.494;2022-11-10T15:46:24;13.70;78.80
46309;DHT22;32037;50.820;6.494;2022-11-10T15:49:19;13.70;78.60
46309;DHT22;32037;50.820;6.494;2022-11-10T15:52:12;13.70;78.60
46309;DHT22;32037;50.820;6.494;2022-11-10T15:55:00;13.70;78.80
46309;DHT22;32037;50.820;6.494;2022-11-10T15:57:47;13.70;78.60
46309;DHT22;32037;50.820;6.494;2022-11-10T16:00:34;13.70;78.60
46309;DHT22;32037;50.820;6.494;2022-11-10T16:03:22;13.80;78.70
46309;DHT22;32037;50.820;6.494;2022-11-10T16:06:12;13.70;78.70
46309;DHT22;32037;50.820;6.494;2022-11-10T16:08:59;13.70;78.60
46309;DHT22;32037;50.820;6.494;2022-11-10T16:11:46;13.70;78.60
46309;DHT22;32037;50.820;6.494;2022-11-10T16:14:33;13.70;78.60
46309;DHT22;32037;50.820;6.494;2022-11-10T16:17:20;13.70;78.60
46309;DHT22;32037;50.820;6.494;2022-11-10T16:20:12;13.80;78.70
46309;DHT22;32037;50.820;6.494;2022-11-10T16:23:00;13.80;78.80
46309;DHT22;32037;50.820;6.494;2022-11-10T16:25:49;13.80;78.80
46309;DHT22;32037;50.820;6.494;2022-11-10T16:28:37;13.80;78.90
46309;DHT22;32037;50.820;6.494;2022-11-10T16:31:26;13.80;78.80
46309;DHT22;32037;50.820;6.494;2022-11-10T16:34:15;13.80;78.80
46309;DHT22;32037;50.820;6.494;2022-11-10T16:37:01;13.80;78.80
46309;DHT22;32037;50.820;6.494;2022-11-10T16:39:50;13.80;78.80
46309;DHT22;32037;50.820;6.494;2022-11-10T16:42:37;13.80;78.90
46309;DHT22;32037;50.820;6.494;2022-11-10T16:45:24;13.80;80.10
46309;DHT22;32037;50.820;6.494;2022-11-10T16:48:17;13.80;78.90
46309;DHT22;32037;50.820;6.494;2022-11-10T16:51:05;13.80;78.90
46309;DHT22;32037;50.820;6.494;2022-11-10T16:53:52;13.80;78.90
46309;DHT22;32037;50.820;6.494;2022-11-10T16:56:41;13.80;78.80
46309;DHT22;32037;50.820;6.494;2022-11-10T16:59:28;13.80;78.80
46309;DHT22;32037;50.820;6.494;2022-11-10T17:02:24;13.80;78.80
46309;DHT22;32037;50.820;6.494;2022-11-10T17:05:12;13.80;78.60
46309;DHT22;32037;50.820;6.494;2022-11-10T17:08:02;13.80;78.60
46309;DHT22;32037;50.820;6.494;2022-11-10T17:10:49;13.80;78.80
46309;DHT22;32037;50.820;6.494;2022-11-10T17:13:38;13.80;78.60
46309;DHT22;32037;50.820;6.494;2022-11-10T17:16:28;13.80;78.70
46309;DHT22;32037;50.820;6.494;2022-11-10T17:19:23;13.80;78.40
46309;DHT22;32037;50.820;6.494;2022-11-10T17:22:13;13.80;78.30
46309;DHT22;32037;50.820;6.494;2022-11-10T17:25:02;13.80;78.30
46309;DHT22;32037;50.820;6.494;2022-11-10T17:27:49;13.80;78.40
46309;DHT22;32037;50.820;6.494;2022-11-10T17:30:38;13.80;78.30
46309;DHT22;32037;50.820;6.494;2022-11-10T17:33:24;13.80;78.40
46309;DHT22;32037;50.820;6.494;2022-11-10T17:36:16;13.80;78.40
46309;DHT22;32037;50.820;6.494;2022-11-10T17:39:04;13.70;78.30
46309;DHT22;32037;50.820;6.494;2022-11-10T17:41:51;13.80;78.40
46309;DHT22;32037;50.820;6.494;2022-11-10T17:44:38;13.70;78.40
46309;DHT22;32037;50.820;6.494;2022-11-10T17:47:26;13.70;78.30
46309;DHT22;32037;50.820;6.494;2022-11-10T17:50:15;13.80;78.30
46309;DHT22;32037;50.820;6.494;2022-11-10T17:53:14;13.80;78.40
46309;DHT22;32037;50.820;6.494;2022-11-10T17:56:04;13.80;78.40
46309;DHT22;32037;50.820;6.494;2022-11-10T17:58:51;13.80;78.40
46309;DHT22;32037;50.820;6.494;2022-11-10T18:01:39;13.80;78.40
46309;DHT22;32037;50.820;6.494;2022-11-10T18:04:28;13.80;78.30
46309;DHT22;32037;50.820;6.494;2022-11-10T18:07:15;13.80;78.20
46309;DHT22;32037;50.820;6.494;2022-11-10T18:10:02;13.80;78.20
46309;DHT22;32037;50.820;6.494;2022-11-10T18:12:49;13.80;78.30
46309;DHT22;32037;50.820;6.494;2022-11-10T18:15:39;13.80;78.40
46309;DHT22;32037;50.820;6.494;2022-11-10T18:18:26;13.80;78.30
46309;DHT22;32037;50.820;6.494;2022-11-10T18:21:14;13.80;78.40
46309;DHT22;32037;50.820;6.494;2022-11-10T18:24:02;13.80;78.30
46309;DHT22;32037;50.820;6.494;2022-11-10T18:26:49;13.80;78.40